createdAt,value
2022-08-22T00:00:38.236Z,3.38
2022-08-22T00:01:38.641Z,3.60
2022-08-22T00:02:23.689Z,4.40
2022-08-22T00:02:49.417Z,3.85
2022-08-22T00:02:49.791Z,2.50
2022-08-22T00:02:52.601Z,4.32
2022-08-22T00:02:56.161Z,1.63
2022-08-22T00:02:56.789Z,2.90
2022-08-22T00:02:57.070Z,2.83
2022-08-22T00:02:58.815Z,3.75
2022-08-22T00:03:00.667Z,1.33
2022-08-22T00:03:00.779Z,3.50
2022-08-22T00:03:04.188Z,3.87
2022-08-22T00:03:06.741Z,3.80
2022-08-22T00:03:07.177Z,4.43
2022-08-22T00:03:09.412Z,3.42
2022-08-22T00:03:10.470Z,3.13
2022-08-22T00:03:11.562Z,3.83
2022-08-22T00:03:12.379Z,3.03
2022-08-22T00:03:23.636Z,3.50
2022-08-22T00:04:33.478Z,3.22
2022-08-22T00:05:34.837Z,3.40
2022-08-22T00:06:09.739Z,3.88
2022-08-22T00:07:25.795Z,3.08
2022-08-22T00:08:14.448Z,4.03
2022-08-22T00:09:13.844Z,3.23
2022-08-22T00:10:08.746Z,3.33
2022-08-22T00:11:13.206Z,4.00
2022-08-22T00:12:00.013Z,3.53
2022-08-22T00:12:37.744Z,3.63
2022-08-22T00:13:33.908Z,4.10
2022-08-22T00:14:17.535Z,3.80
2022-08-22T00:15:03.605Z,4.13
2022-08-22T00:15:41.835Z,4.03
2022-08-22T00:16:30.297Z,3.72
2022-08-22T00:17:20.420Z,3.53
2022-08-22T00:18:09.703Z,3.47
2022-08-22T00:19:06.291Z,3.20
2022-08-22T00:20:06.941Z,3.90
2022-08-22T00:20:45.924Z,3.17
2022-08-22T00:21:27.258Z,3.78
2022-08-22T00:22:09.072Z,3.65
2022-08-22T00:22:56.335Z,3.78
2022-08-22T00:23:36.748Z,3.85
2022-08-22T00:24:21.451Z,3.58
2022-08-22T00:25:24.608Z,4.00
2022-08-22T00:26:16.931Z,4.38
2022-08-22T00:27:04.303Z,3.38
2022-08-22T00:27:59.634Z,3.45
2022-08-22T00:28:53.400Z,4.18
2022-08-22T00:29:37.404Z,3.45
2022-08-22T00:31:17.440Z,3.70
2022-08-22T00:32:30.894Z,2.97
2022-08-22T00:33:05.209Z,3.33
2022-08-22T00:33:46.685Z,3.60
2022-08-22T00:34:22.604Z,3.03
2022-08-22T00:36:04.124Z,3.47
2022-08-22T00:36:51.350Z,3.15
2022-08-22T00:37:22.866Z,2.90
2022-08-22T00:38:26.756Z,3.55
2022-08-22T00:39:19.220Z,2.90
2022-08-22T00:40:29.689Z,3.42
2022-08-22T00:41:33.511Z,3.00
2022-08-22T00:42:49.785Z,3.13
2022-08-22T00:43:45.361Z,2.78
2022-08-22T00:44:35.416Z,3.17
2022-08-22T00:45:30.806Z,3.45
2022-08-22T00:46:20.108Z,2.88
2022-08-22T00:47:33.990Z,3.28
2022-08-22T00:48:05.709Z,3.38
2022-08-22T00:49:07.605Z,3.65
2022-08-22T00:50:16.453Z,3.97
2022-08-22T00:51:01.893Z,2.92
2022-08-22T00:51:51.865Z,3.70
2022-08-22T00:52:43.687Z,3.70
2022-08-22T00:53:33.611Z,3.67
2022-08-22T00:54:19.848Z,3.88
2022-08-22T00:55:11.374Z,3.78
2022-08-22T00:56:50.397Z,3.30
2022-08-22T00:57:52.629Z,3.25
2022-08-22T00:58:44.551Z,3.70
2022-08-22T00:59:43.815Z,3.00
2022-08-22T01:00:28.468Z,3.87
2022-08-22T01:01:06.804Z,3.75
2022-08-22T01:01:51.532Z,3.08
2022-08-22T01:02:38.748Z,3.67
2022-08-22T01:03:27.516Z,3.13
2022-08-22T01:04:11.491Z,3.08
2022-08-22T01:05:02.522Z,3.33
2022-08-22T01:05:48.983Z,3.33
2022-08-22T01:06:48.651Z,3.72
2022-08-22T01:07:37.828Z,4.25
2022-08-22T01:08:24.740Z,2.73
2022-08-22T01:10:10.260Z,3.50
2022-08-22T01:11:13.344Z,3.67
2022-08-22T01:12:16.516Z,2.97
2022-08-22T01:13:05.342Z,3.20
2022-08-22T01:13:53.960Z,3.33
2022-08-22T01:14:44.351Z,3.45
2022-08-22T01:15:22.849Z,3.22
2022-08-22T01:16:06.260Z,2.60
2022-08-22T01:17:00.693Z,2.60
2022-08-22T01:18:02.369Z,3.45
2022-08-22T01:19:08.446Z,3.55
2022-08-22T01:20:08.297Z,3.50
2022-08-22T01:20:55.339Z,3.42
2022-08-22T01:21:54.191Z,2.80
2022-08-22T01:22:47.109Z,3.78
2022-08-22T01:23:40.613Z,3.70
2022-08-22T01:25:01.615Z,3.47
2022-08-22T01:26:04.489Z,3.25
2022-08-22T01:27:20.188Z,3.33
2022-08-22T01:28:13.492Z,3.35
2022-08-22T01:29:03.396Z,3.50
2022-08-22T01:30:08.028Z,2.53
2022-08-22T01:30:59.355Z,3.28
2022-08-22T01:32:08.013Z,2.97
2022-08-22T01:33:05.715Z,3.47
2022-08-22T01:34:14.256Z,3.40
2022-08-22T01:35:15.163Z,3.22
2022-08-22T01:35:59.585Z,3.20
2022-08-22T01:36:48.236Z,3.07
2022-08-22T01:37:31.494Z,4.60
2022-08-22T01:38:25.752Z,2.97
2022-08-22T01:39:16.215Z,3.33
2022-08-22T01:40:25.295Z,3.80
2022-08-22T01:41:22.912Z,4.07
2022-08-22T01:42:15.542Z,2.80
2022-08-22T01:43:04.807Z,3.10
2022-08-22T01:44:13.862Z,3.28
2022-08-22T01:45:05.441Z,2.92
2022-08-22T01:45:59.804Z,4.57
2022-08-22T01:46:40.528Z,3.08
2022-08-22T01:47:18.310Z,3.08
2022-08-22T01:48:16.719Z,3.30
2022-08-22T01:48:55.909Z,3.25
2022-08-22T01:49:37.164Z,2.92
2022-08-22T01:50:30.643Z,2.65
2022-08-22T01:51:31.162Z,3.92
2022-08-22T01:52:09.563Z,3.40
2022-08-22T01:52:48.810Z,2.95
2022-08-22T01:53:39.731Z,3.30
2022-08-22T01:54:24.608Z,3.80
2022-08-22T01:55:01.943Z,3.45
2022-08-22T01:55:55.331Z,4.25
2022-08-22T01:56:33.263Z,3.67
2022-08-22T01:57:08.221Z,3.55
2022-08-22T01:57:53.679Z,3.20
2022-08-22T01:58:30.692Z,3.17
2022-08-22T02:00:17.220Z,3.10
2022-08-22T02:01:15.016Z,3.37
2022-08-22T02:02:13.043Z,4.18
2022-08-22T02:03:03.368Z,3.38
2022-08-22T02:04:03.896Z,3.35
2022-08-22T02:04:59.546Z,3.20
2022-08-22T02:05:46.807Z,3.25
2022-08-22T02:06:42.842Z,4.03
2022-08-22T02:08:44.947Z,3.20
2022-08-22T02:09:45.363Z,2.72
2022-08-22T02:10:25.735Z,3.47
2022-08-22T02:11:04.214Z,3.00
2022-08-22T02:11:52.485Z,3.10
2022-08-22T02:12:47.505Z,3.00
2022-08-22T02:13:51.278Z,3.30
2022-08-22T02:14:40.148Z,3.08
2022-08-22T02:15:14.470Z,3.15
2022-08-22T02:15:54.124Z,2.70
2022-08-22T02:16:40.015Z,3.20
2022-08-22T02:17:22.481Z,3.08
2022-08-22T02:18:12.381Z,2.80
2022-08-22T02:19:18.215Z,2.65
2022-08-22T02:20:57.760Z,3.00
2022-08-22T02:21:51.665Z,4.35
2022-08-22T02:22:49.037Z,2.90
2022-08-22T02:23:25.014Z,2.92
2022-08-22T02:24:19.343Z,3.50
2022-08-22T02:25:09.139Z,3.83
2022-08-22T02:25:55.357Z,2.92
2022-08-22T02:26:50.279Z,3.47
2022-08-22T02:27:43.344Z,2.80
2022-08-22T02:28:27.795Z,2.95
2022-08-22T02:29:12.154Z,3.10
2022-08-22T02:29:49.575Z,2.65
2022-08-22T02:30:26.335Z,3.40
2022-08-22T02:31:25.863Z,2.95
2022-08-22T02:32:16.408Z,3.15
2022-08-22T02:33:13.144Z,3.35
2022-08-22T02:33:54.022Z,2.55
2022-08-22T02:36:17.384Z,2.60
2022-08-22T02:37:09.906Z,2.67
2022-08-22T02:38:08.415Z,3.30
2022-08-22T02:39:06.939Z,3.10
2022-08-22T02:39:53.338Z,3.63
2022-08-22T02:40:43.443Z,3.17
2022-08-22T02:41:52.376Z,2.75
2022-08-22T02:42:50.892Z,3.03
2022-08-22T02:43:35.637Z,3.08
2022-08-22T02:44:21.017Z,2.80
2022-08-22T02:45:21.437Z,3.20
2022-08-22T02:46:32.484Z,3.42
2022-08-22T02:47:13.480Z,3.25
2022-08-22T02:48:14.732Z,3.00
2022-08-22T02:48:58.692Z,2.88
2022-08-22T02:49:43.781Z,3.20
2022-08-22T02:51:31.370Z,3.33
2022-08-22T02:52:26.308Z,3.78
2022-08-22T02:53:05.331Z,2.53
2022-08-22T02:53:46.076Z,3.08
2022-08-22T02:54:31.182Z,3.08
2022-08-22T02:55:46.163Z,3.30
2022-08-22T02:56:41.115Z,3.78
2022-08-22T02:57:20.033Z,2.83
2022-08-22T02:58:03.094Z,2.83
2022-08-22T02:58:45.586Z,2.90
2022-08-22T02:59:30.905Z,3.25
2022-08-22T03:00:31.034Z,2.92
2022-08-22T03:01:17.645Z,2.37
2022-08-22T03:01:50.392Z,3.85
2022-08-22T03:02:36.371Z,3.13
2022-08-22T03:03:20.059Z,3.53
2022-08-22T03:03:52.737Z,3.00
2022-08-22T03:05:26.190Z,3.30
2022-08-22T03:06:06.255Z,3.35
2022-08-22T03:06:42.940Z,3.45
2022-08-22T03:07:37.885Z,3.20
2022-08-22T03:08:22.708Z,3.07
2022-08-22T03:09:15.528Z,2.80
2022-08-22T03:10:10.712Z,3.22
2022-08-22T03:10:54.513Z,3.20
2022-08-22T03:11:35.366Z,3.88
2022-08-22T03:12:29.390Z,2.90
2022-08-22T03:13:12.401Z,3.28
2022-08-22T03:14:28.117Z,3.50
2022-08-22T03:15:28.108Z,3.55
2022-08-22T03:17:05.811Z,2.70
2022-08-22T03:17:51.204Z,3.20
2022-08-22T03:18:41.338Z,3.13
2022-08-22T03:19:20.244Z,4.28
2022-08-22T03:20:07.643Z,3.70
2022-08-22T03:20:48.083Z,3.75
2022-08-22T03:21:41.171Z,3.50
2022-08-22T03:22:30.583Z,3.45
2022-08-22T03:23:17.153Z,3.78
2022-08-22T03:23:55.704Z,3.45
2022-08-22T03:24:52.572Z,3.60
2022-08-22T03:25:40.359Z,4.00
2022-08-22T03:26:27.899Z,3.47
2022-08-22T03:27:32.177Z,3.30
2022-08-22T03:28:58.940Z,3.35
2022-08-22T03:29:36.129Z,3.17
2022-08-22T03:30:10.706Z,3.08
2022-08-22T03:30:43.976Z,3.67
2022-08-22T03:31:20.129Z,3.47
2022-08-22T03:32:14.231Z,3.03
2022-08-22T03:32:59.310Z,3.67
2022-08-22T03:33:31.759Z,3.42
2022-08-22T03:34:25.043Z,3.50
2022-08-22T03:35:08.894Z,3.50
2022-08-22T03:35:46.243Z,3.67
2022-08-22T03:36:17.748Z,3.65
2022-08-22T03:37:17.891Z,3.08
2022-08-22T03:37:54.120Z,3.15
2022-08-22T03:40:52.912Z,2.93
2022-08-22T03:41:50.708Z,3.60
2022-08-22T03:43:15.432Z,3.50
2022-08-22T03:43:58.718Z,3.13
2022-08-22T03:44:38.915Z,3.85
2022-08-22T03:45:33.496Z,3.30
2022-08-22T03:46:30.038Z,3.30
2022-08-22T03:47:01.336Z,3.75
2022-08-22T03:47:43.299Z,3.50
2022-08-22T03:48:51.927Z,4.05
2022-08-22T03:50:00.815Z,3.13
2022-08-22T03:50:47.573Z,3.33
2022-08-22T03:51:45.154Z,3.47
2022-08-22T03:52:34.773Z,3.97
2022-08-22T03:53:24.044Z,3.60
2022-08-22T03:54:14.822Z,3.60
2022-08-22T03:54:53.825Z,3.13
2022-08-22T03:55:32.008Z,3.80
2022-08-22T03:56:12.425Z,3.00
2022-08-22T03:57:20.592Z,3.75
2022-08-22T03:57:57.944Z,3.73
2022-08-22T03:58:57.363Z,3.83
2022-08-22T04:00:01.632Z,3.55
2022-08-22T04:00:48.031Z,3.25
2022-08-22T04:01:41.871Z,3.63
2022-08-22T04:02:42.845Z,3.45
2022-08-22T04:03:46.414Z,3.25
2022-08-22T04:04:28.556Z,3.70
2022-08-22T04:05:18.036Z,4.05
2022-08-22T04:06:13.058Z,4.03
2022-08-22T04:06:53.669Z,3.60
2022-08-22T04:07:58.375Z,3.70
2022-08-22T04:09:12.574Z,3.67
2022-08-22T04:10:14.524Z,3.55
2022-08-22T04:10:54.896Z,3.75
2022-08-22T04:12:10.891Z,3.70
2022-08-22T04:12:56.051Z,2.97
2022-08-22T04:13:48.978Z,3.53
2022-08-22T04:14:29.341Z,3.55
2022-08-22T04:15:36.999Z,3.03
2022-08-22T04:16:49.207Z,4.53
2022-08-22T04:18:47.563Z,3.67
2022-08-22T04:19:38.630Z,3.97
2022-08-22T04:20:54.249Z,3.55
2022-08-22T04:21:37.284Z,4.00
2022-08-22T04:22:39.528Z,3.90
2022-08-22T04:23:46.306Z,3.30
2022-08-22T04:24:52.215Z,3.78
2022-08-22T04:25:33.704Z,3.33
2022-08-22T04:26:12.727Z,3.57
2022-08-22T04:27:15.716Z,3.85
2022-08-22T04:28:10.108Z,3.85
2022-08-22T04:28:49.202Z,4.43
2022-08-22T04:29:31.888Z,3.70
2022-08-22T04:30:30.051Z,3.67
2022-08-22T04:31:06.104Z,3.13
2022-08-22T04:31:46.185Z,3.65
2022-08-22T04:32:36.450Z,4.15
2022-08-22T04:33:44.372Z,3.85
2022-08-22T04:34:31.855Z,3.23
2022-08-22T04:35:12.280Z,3.30
2022-08-22T04:35:57.806Z,3.15
2022-08-22T04:36:45.360Z,3.75
2022-08-22T04:37:55.052Z,3.95
2022-08-22T04:38:37.096Z,4.22
2022-08-22T04:39:24.915Z,3.38
2022-08-22T04:39:59.282Z,3.42
2022-08-22T04:40:43.316Z,3.17
2022-08-22T04:41:41.552Z,3.25
2022-08-22T04:42:36.699Z,4.03
2022-08-22T04:44:19.198Z,3.00
2022-08-22T04:45:00.158Z,4.18
2022-08-22T04:45:52.378Z,4.15
2022-08-22T04:46:36.699Z,3.55
2022-08-22T04:47:35.031Z,4.32
2022-08-22T04:48:27.858Z,3.85
2022-08-22T04:49:16.687Z,4.38
2022-08-22T04:50:11.688Z,3.15
2022-08-22T04:50:54.611Z,3.87
2022-08-22T04:51:44.308Z,4.43
2022-08-22T04:52:38.420Z,3.50
2022-08-22T04:53:32.528Z,4.13
2022-08-22T04:54:18.295Z,4.45
2022-08-22T04:55:16.975Z,3.90
2022-08-22T04:56:07.689Z,3.70
2022-08-22T04:57:23.844Z,3.78
2022-08-22T04:58:32.526Z,3.90
2022-08-22T04:59:10.242Z,4.35
2022-08-22T04:59:43.148Z,4.03
2022-08-22T05:00:16.649Z,3.58
2022-08-22T05:01:06.635Z,3.92
2022-08-22T05:01:53.427Z,4.10
2022-08-22T05:02:27.797Z,3.55
2022-08-22T05:03:02.730Z,4.30
2022-08-22T05:03:44.370Z,4.43
2022-08-22T05:04:21.019Z,4.20
2022-08-22T05:05:01.553Z,4.78
2022-08-22T05:05:38.697Z,4.13
2022-08-22T05:06:13.353Z,4.13
2022-08-22T05:06:50.425Z,4.63
2022-08-22T05:07:28.987Z,3.92
2022-08-22T05:08:11.579Z,4.45
2022-08-22T05:08:46.034Z,4.28
2022-08-22T05:09:31.223Z,4.10
2022-08-22T05:10:16.766Z,3.92
2022-08-22T05:10:50.587Z,4.95
2022-08-22T05:12:20.595Z,4.78
2022-08-22T05:13:00.463Z,3.87
2022-08-22T05:13:39.375Z,4.50
2022-08-22T05:14:19.012Z,3.85
2022-08-22T05:15:18.982Z,4.25
2022-08-22T05:16:36.832Z,4.28
2022-08-22T05:17:13.226Z,4.10
2022-08-22T05:17:51.682Z,4.60
2022-08-22T05:18:29.612Z,3.97
2022-08-22T05:20:00.787Z,3.92
2022-08-22T05:20:34.673Z,4.77
2022-08-22T05:21:27.290Z,4.80
2022-08-22T05:21:59.140Z,4.20
2022-08-22T05:22:37.584Z,4.47
2022-08-22T05:23:29.134Z,4.18
2022-08-22T05:24:14.168Z,4.18
2022-08-22T05:24:49.505Z,4.07
2022-08-22T05:25:28.730Z,4.20
2022-08-22T05:26:03.455Z,4.88
2022-08-22T05:26:40.784Z,4.65
2022-08-22T05:27:19.763Z,5.13
2022-08-22T05:28:01.955Z,4.45
2022-08-22T05:29:00.433Z,3.95
2022-08-22T05:29:32.678Z,5.30
2022-08-22T05:30:13.371Z,4.13
2022-08-22T05:30:47.637Z,4.35
2022-08-22T05:31:26.351Z,4.20
2022-08-22T05:32:03.478Z,4.90
2022-08-22T05:33:07.043Z,4.55
2022-08-22T05:33:43.555Z,4.72
2022-08-22T05:34:20.239Z,4.70
2022-08-22T05:34:57.719Z,4.35
2022-08-22T05:35:57.861Z,5.00
2022-08-22T05:36:36.004Z,5.15
2022-08-22T05:37:24.612Z,4.93
2022-08-22T05:37:56.502Z,4.60
2022-08-22T05:38:32.237Z,4.63
2022-08-22T05:39:10.080Z,4.63
2022-08-22T05:39:47.332Z,4.78
2022-08-22T05:40:28.180Z,4.53
2022-08-22T05:41:05.707Z,4.77
2022-08-22T05:41:39.111Z,4.82
2022-08-22T05:42:25.820Z,4.80
2022-08-22T05:42:58.101Z,4.65
2022-08-22T05:43:29.996Z,4.10
2022-08-22T05:44:02.436Z,5.07
2022-08-22T05:44:37.982Z,4.70
2022-08-22T05:45:12.423Z,5.00
2022-08-22T05:45:47.607Z,4.75
2022-08-22T05:46:42.846Z,4.38
2022-08-22T05:47:32.369Z,4.57
2022-08-22T05:48:19.740Z,5.05
2022-08-22T05:49:03.836Z,4.05
2022-08-22T05:50:02.122Z,4.63
2022-08-22T05:50:50.929Z,4.82
2022-08-22T05:51:30.064Z,4.10
2022-08-22T05:52:23.051Z,4.38
2022-08-22T05:53:18.128Z,4.53
2022-08-22T05:53:59.116Z,4.72
2022-08-22T05:54:34.677Z,4.57
2022-08-22T05:55:12.167Z,4.87
2022-08-22T05:55:53.505Z,4.63
2022-08-22T05:56:37.289Z,4.40
2022-08-22T05:57:41.338Z,5.55
2022-08-22T05:58:31.739Z,4.55
2022-08-22T05:59:29.698Z,4.18
2022-08-22T06:00:24.168Z,4.13
2022-08-22T06:01:09.015Z,4.45
2022-08-22T06:01:51.942Z,5.15
2022-08-22T06:02:38.919Z,4.45
2022-08-22T06:03:31.275Z,4.23
2022-08-22T06:04:27.566Z,4.00
2022-08-22T06:05:03.275Z,3.80
2022-08-22T06:05:41.134Z,4.75
2022-08-22T06:06:18.271Z,4.63
2022-08-22T06:06:56.788Z,5.03
2022-08-22T06:07:33.774Z,4.60
2022-08-22T06:08:14.073Z,4.32
2022-08-22T06:09:12.756Z,4.10
2022-08-22T06:09:46.914Z,5.10
2022-08-22T06:10:27.623Z,4.23
2022-08-22T06:11:07.388Z,4.88
2022-08-22T06:11:50.114Z,4.45
2022-08-22T06:12:39.194Z,4.47
2022-08-22T06:13:41.278Z,4.72
2022-08-22T06:14:30.037Z,5.93
2022-08-22T06:15:14.491Z,4.32
2022-08-22T06:16:05.556Z,4.45
2022-08-22T06:16:47.531Z,5.03
2022-08-22T06:17:26.492Z,4.68
2022-08-22T06:18:02.363Z,4.50
2022-08-22T06:18:54.309Z,4.47
2022-08-22T06:19:26.020Z,4.35
2022-08-22T06:20:00.064Z,4.57
2022-08-22T06:20:39.120Z,4.80
2022-08-22T06:21:20.884Z,4.35
2022-08-22T06:21:54.688Z,4.50
2022-08-22T06:22:32.071Z,4.43
2022-08-22T06:23:07.203Z,5.30
2022-08-22T06:23:45.630Z,4.40
2022-08-22T06:24:23.955Z,4.67
2022-08-22T06:25:01.864Z,4.53
2022-08-22T06:25:37.561Z,4.43
2022-08-22T06:26:21.168Z,4.57
2022-08-22T06:26:57.888Z,5.07
2022-08-22T06:27:47.935Z,4.80
2022-08-22T06:29:31.710Z,4.60
2022-08-22T06:30:04.604Z,5.32
2022-08-22T06:30:37.922Z,4.80
2022-08-22T06:31:18.368Z,4.93
2022-08-22T06:31:49.871Z,4.95
2022-08-22T06:32:44.423Z,4.47
2022-08-22T06:35:56.755Z,5.22
2022-08-22T06:36:32.385Z,4.30
2022-08-22T06:37:09.643Z,5.18
2022-08-22T06:37:45.904Z,4.80
2022-08-22T06:38:19.788Z,4.57
2022-08-22T06:39:12.574Z,4.73
2022-08-22T06:39:49.064Z,4.57
2022-08-22T06:40:20.909Z,4.20
2022-08-22T06:40:54.467Z,5.22
2022-08-22T06:41:30.140Z,5.10
2022-08-22T06:42:04.517Z,6.10
2022-08-22T06:43:00.002Z,5.07
2022-08-22T06:43:38.959Z,5.13
2022-08-22T06:44:14.908Z,5.20
2022-08-22T06:44:51.519Z,5.32
2022-08-22T06:45:29.982Z,6.00
2022-08-22T06:46:01.722Z,4.95
2022-08-22T06:46:36.157Z,5.18
2022-08-22T06:47:11.529Z,5.18
2022-08-22T06:47:50.125Z,5.45
2022-08-22T06:48:24.134Z,5.47
2022-08-22T06:48:57.196Z,5.65
2022-08-22T06:49:35.138Z,5.47
2022-08-22T06:50:14.611Z,5.43
2022-08-22T06:50:53.363Z,5.13
2022-08-22T06:51:28.103Z,5.03
2022-08-22T06:52:03.204Z,4.95
2022-08-22T06:52:48.508Z,5.75
2022-08-22T06:53:24.751Z,5.75
2022-08-22T06:54:03.546Z,6.38
2022-08-22T06:54:38.672Z,5.05
2022-08-22T06:56:02.956Z,5.50
2022-08-22T06:56:40.310Z,4.93
2022-08-22T06:57:35.981Z,5.82
2022-08-22T06:58:15.355Z,5.23
2022-08-22T06:58:52.356Z,5.20
2022-08-22T06:59:27.515Z,5.30
2022-08-22T07:00:18.089Z,6.47
2022-08-22T07:01:11.705Z,5.25
2022-08-22T07:02:04.062Z,5.05
2022-08-22T07:02:42.824Z,5.30
2022-08-22T07:03:25.387Z,5.40
2022-08-22T07:04:03.161Z,4.90
2022-08-22T07:04:34.650Z,5.20
2022-08-22T07:05:13.874Z,5.80
2022-08-22T07:05:45.275Z,4.93
2022-08-22T07:06:21.163Z,4.50
2022-08-22T07:06:54.996Z,5.20
2022-08-22T07:07:27.751Z,6.00
2022-08-22T07:08:09.066Z,4.60
2022-08-22T07:08:40.660Z,5.40
2022-08-22T07:09:26.324Z,5.88
2022-08-22T07:09:57.791Z,5.60
2022-08-22T07:10:29.203Z,6.40
2022-08-22T07:11:23.447Z,5.20
2022-08-22T07:12:19.460Z,5.25
2022-08-22T07:12:54.080Z,4.90
2022-08-22T07:13:28.202Z,4.82
2022-08-22T07:14:03.562Z,6.35
2022-08-22T07:15:42.165Z,5.93
2022-08-22T07:16:13.802Z,5.68
2022-08-22T07:16:56.415Z,5.10
2022-08-22T07:17:32.668Z,5.30
2022-08-22T07:18:08.535Z,6.50
2022-08-22T07:18:48.960Z,5.05
2022-08-22T07:20:03.770Z,5.25
2022-08-22T07:20:45.099Z,5.22
2022-08-22T07:21:47.164Z,5.18
2022-08-22T07:22:25.608Z,5.55
2022-08-22T07:23:18.052Z,6.25
2022-08-22T07:23:49.428Z,5.30
2022-08-22T07:24:31.300Z,5.45
2022-08-22T07:25:06.477Z,5.90
2022-08-22T07:25:54.181Z,5.53
2022-08-22T07:26:44.187Z,5.82
2022-08-22T07:27:37.538Z,5.18
2022-08-22T07:28:51.566Z,5.60
2022-08-22T07:29:44.101Z,5.32
2022-08-22T07:30:27.397Z,6.18
2022-08-22T07:31:13.290Z,5.88
2022-08-22T07:31:53.987Z,6.25
2022-08-22T07:32:41.848Z,6.18
2022-08-22T07:33:28.004Z,5.35
2022-08-22T07:34:33.022Z,6.80
2022-08-22T07:35:13.488Z,5.30
2022-08-22T07:35:54.421Z,6.30
2022-08-22T07:36:39.079Z,6.00
2022-08-22T07:37:23.474Z,5.78
2022-08-22T07:38:42.665Z,5.60
2022-08-22T07:39:28.094Z,5.60
2022-08-22T07:40:22.090Z,6.03
2022-08-22T07:41:15.227Z,6.00
2022-08-22T07:42:07.546Z,5.80
2022-08-22T07:42:55.907Z,5.73
2022-08-22T07:43:36.203Z,6.00
2022-08-22T07:44:16.542Z,5.68
2022-08-22T07:45:06.191Z,6.57
2022-08-22T07:45:47.184Z,6.88
2022-08-22T07:46:36.838Z,5.70
2022-08-22T07:48:25.098Z,5.78
2022-08-22T07:49:14.491Z,6.95
2022-08-22T07:49:58.897Z,6.07
2022-08-22T07:50:34.637Z,6.30
2022-08-22T07:51:16.970Z,5.78
2022-08-22T07:51:57.647Z,6.07
2022-08-22T07:52:37.424Z,7.15
2022-08-22T07:53:28.291Z,6.20
2022-08-22T07:54:04.580Z,6.43
2022-08-22T07:55:02.199Z,6.68
2022-08-22T07:55:48.439Z,5.97
2022-08-22T07:56:26.119Z,6.60
2022-08-22T07:57:09.350Z,6.05
2022-08-22T07:57:45.233Z,6.47
2022-08-22T07:58:18.015Z,6.13
2022-08-22T07:58:55.907Z,5.78
2022-08-22T07:59:29.486Z,6.30
2022-08-22T08:00:04.351Z,7.57
2022-08-22T08:00:43.056Z,5.68
2022-08-22T08:01:20.806Z,6.15
2022-08-22T08:01:56.877Z,6.35
2022-08-22T08:02:28.698Z,7.38
2022-08-22T08:03:06.888Z,6.15
2022-08-22T08:03:38.633Z,5.77
2022-08-22T08:04:39.537Z,6.07
2022-08-22T08:05:13.621Z,5.90
2022-08-22T08:05:45.472Z,6.32
2022-08-22T08:06:17.161Z,6.50
2022-08-22T08:06:52.581Z,6.43
2022-08-22T08:07:27.469Z,5.90
2022-08-22T08:08:01.675Z,6.03
2022-08-22T08:08:41.806Z,6.50
2022-08-22T08:09:17.036Z,5.53
2022-08-22T08:09:56.409Z,6.00
2022-08-22T08:10:32.824Z,6.45
2022-08-22T08:11:04.987Z,5.75
2022-08-22T08:11:41.467Z,6.30
2022-08-22T08:12:15.518Z,5.80
2022-08-22T08:12:52.778Z,6.68
2022-08-22T08:13:41.581Z,6.00
2022-08-22T08:14:16.647Z,5.97
2022-08-22T08:14:53.455Z,5.75
2022-08-22T08:15:25.866Z,6.20
2022-08-22T08:15:58.543Z,5.30
2022-08-22T08:17:00.305Z,5.93
2022-08-22T08:17:34.490Z,5.78
2022-08-22T08:18:11.700Z,6.10
2022-08-22T08:18:46.980Z,5.57
2022-08-22T08:19:19.872Z,6.95
2022-08-22T08:19:52.423Z,5.53
2022-08-22T08:20:29.462Z,5.63
2022-08-22T08:21:06.852Z,6.13
2022-08-22T08:21:47.423Z,5.72
2022-08-22T08:22:23.536Z,5.17
2022-08-22T08:22:57.084Z,5.18
2022-08-22T08:23:33.538Z,5.25
2022-08-22T08:24:11.911Z,5.57
2022-08-22T08:24:45.724Z,5.28
2022-08-22T08:25:25.773Z,5.10
2022-08-22T08:26:17.246Z,5.35
2022-08-22T08:27:13.590Z,5.10
2022-08-22T08:28:04.183Z,4.78
2022-08-22T08:28:44.116Z,5.10
2022-08-22T08:29:18.407Z,5.20
2022-08-22T08:29:59.003Z,4.80
2022-08-22T08:30:42.956Z,4.60
2022-08-22T08:31:44.877Z,4.57
2022-08-22T08:32:17.999Z,4.75
2022-08-22T08:32:59.548Z,4.68
2022-08-22T08:33:50.171Z,5.22
2022-08-22T08:34:24.906Z,4.57
2022-08-22T08:34:56.600Z,4.57
2022-08-22T08:35:35.352Z,4.68
2022-08-22T08:36:48.136Z,4.37
2022-08-22T08:38:48.652Z,4.75
2022-08-22T08:39:23.495Z,4.10
2022-08-22T08:39:59.168Z,4.50
2022-08-22T08:40:30.479Z,4.63
2022-08-22T08:41:24.538Z,5.35
2022-08-22T08:42:39.531Z,4.32
2022-08-22T08:43:40.450Z,4.50
2022-08-22T08:44:49.543Z,4.38
2022-08-22T08:45:26.570Z,4.07
2022-08-22T08:46:14.214Z,4.68
2022-08-22T08:47:17.081Z,4.65
2022-08-22T08:48:20.950Z,4.78
2022-08-22T08:49:24.090Z,4.55
2022-08-22T08:50:04.691Z,4.60
2022-08-22T08:52:07.972Z,4.10
2022-08-22T08:53:21.904Z,4.82
2022-08-22T08:54:17.902Z,4.15
2022-08-22T08:55:28.587Z,4.83
2022-08-22T08:56:25.331Z,4.78
2022-08-22T08:57:27.374Z,4.93
2022-08-22T08:58:47.467Z,3.92
2022-08-22T09:00:01.567Z,5.30
2022-08-22T09:00:42.710Z,4.50
2022-08-22T09:01:43.326Z,4.53
2022-08-22T09:02:33.906Z,4.57
2022-08-22T09:05:48.883Z,4.60
2022-08-22T09:06:38.559Z,4.15
2022-08-22T09:07:35.752Z,4.40
2022-08-22T09:08:33.198Z,4.30
2022-08-22T09:09:39.571Z,4.30
2022-08-22T09:10:49.142Z,4.15
2022-08-22T09:11:30.930Z,4.78
2022-08-22T09:12:11.432Z,4.78
2022-08-22T09:13:12.481Z,4.50
2022-08-22T09:13:59.035Z,3.83
2022-08-22T09:15:00.084Z,4.60
2022-08-22T09:15:40.350Z,4.45
2022-08-22T09:16:36.540Z,4.22
2022-08-22T09:17:59.191Z,4.50
2022-08-22T09:18:51.015Z,4.15
2022-08-22T09:19:46.890Z,4.15
2022-08-22T09:21:04.828Z,3.83
2022-08-22T09:21:45.239Z,4.20
2022-08-22T09:22:33.387Z,4.80
2022-08-22T09:23:40.689Z,4.00
2022-08-22T09:24:33.375Z,3.50
2022-08-22T09:25:18.907Z,4.55
2022-08-22T09:26:01.142Z,4.32
2022-08-22T09:26:49.471Z,4.85
2022-08-22T09:27:47.889Z,5.45
2022-08-22T09:28:42.775Z,4.90
2022-08-22T09:29:54.680Z,5.00
2022-08-22T09:30:45.075Z,5.32
2022-08-22T09:31:48.317Z,4.55
2022-08-22T09:32:33.652Z,4.25
2022-08-22T09:33:19.531Z,5.93
2022-08-22T09:34:05.295Z,4.15
2022-08-22T09:35:03.139Z,4.53
2022-08-22T09:35:58.537Z,4.57
2022-08-22T09:37:03.278Z,5.07
2022-08-22T09:37:49.988Z,4.25
2022-08-22T09:38:48.254Z,4.13
2022-08-22T09:39:35.575Z,5.65
2022-08-22T09:40:15.964Z,4.80
2022-08-22T09:41:32.959Z,4.00
2022-08-22T09:42:44.952Z,4.00
2022-08-22T09:43:22.897Z,2.90
2022-08-22T09:44:02.432Z,3.90
2022-08-22T09:44:52.571Z,3.70
2022-08-22T09:45:48.702Z,4.03
2022-08-22T09:46:31.481Z,3.72
2022-08-22T09:47:15.240Z,3.80
2022-08-22T09:48:07.674Z,3.67
2022-08-22T09:49:05.429Z,3.47
2022-08-22T09:49:40.672Z,3.72
2022-08-22T09:50:20.621Z,4.30
2022-08-22T09:51:34.097Z,3.28
2022-08-22T09:52:33.888Z,4.18
2022-08-22T09:53:43.577Z,4.15
2022-08-22T09:54:37.821Z,3.53
2022-08-22T09:55:57.831Z,2.90
2022-08-22T09:57:26.960Z,2.88
2022-08-22T09:58:11.281Z,3.38
2022-08-22T09:58:57.199Z,3.47
2022-08-22T09:59:43.832Z,2.60
2022-08-22T10:00:40.567Z,3.07
2022-08-22T10:01:18.304Z,3.10
2022-08-22T10:02:15.641Z,3.40
2022-08-22T10:03:14.595Z,3.10
2022-08-22T10:05:40.809Z,2.90
2022-08-22T10:06:26.816Z,3.50
2022-08-22T10:07:11.631Z,3.83
2022-08-22T10:08:05.335Z,4.07
2022-08-22T10:09:09.026Z,3.40
2022-08-22T10:10:03.579Z,3.67
2022-08-22T10:10:49.991Z,2.88
2022-08-22T10:11:31.903Z,3.17
2022-08-22T10:12:12.441Z,2.97
2022-08-22T10:12:53.447Z,3.83
2022-08-22T10:13:43.225Z,3.50
2022-08-22T10:14:28.082Z,3.05
2022-08-22T10:15:08.104Z,3.85
2022-08-22T10:16:11.239Z,2.97
2022-08-22T10:17:16.993Z,3.72
2022-08-22T10:18:35.193Z,2.70
2022-08-22T10:19:28.206Z,2.70
2022-08-22T10:20:28.436Z,2.72
2022-08-22T10:21:27.559Z,2.72
2022-08-22T10:22:21.626Z,2.75
2022-08-22T10:23:24.944Z,2.65
2022-08-22T10:24:09.663Z,2.70
2022-08-22T10:24:59.905Z,2.53
2022-08-22T10:25:42.807Z,2.53
2022-08-22T10:26:44.357Z,2.40
2022-08-22T10:27:22.722Z,2.40
2022-08-22T10:28:12.986Z,3.22
2022-08-22T10:28:58.821Z,2.47
2022-08-22T10:30:08.261Z,2.80
2022-08-22T10:30:51.546Z,2.15
2022-08-22T10:31:32.191Z,2.33
2022-08-22T10:32:30.782Z,2.78
2022-08-22T10:33:12.183Z,2.40
2022-08-22T10:33:52.804Z,3.45
2022-08-22T10:35:01.168Z,2.85
2022-08-22T10:36:00.816Z,2.67
2022-08-22T10:36:44.095Z,2.60
2022-08-22T10:39:56.761Z,2.85
2022-08-22T10:40:37.031Z,2.85
2022-08-22T10:41:36.070Z,2.75
2022-08-22T10:42:28.289Z,2.72
2022-08-22T10:43:09.288Z,2.38
2022-08-22T10:43:56.434Z,2.38
2022-08-22T10:44:55.344Z,2.60
2022-08-22T10:45:48.296Z,2.72
2022-08-22T10:46:45.286Z,2.45
2022-08-22T10:47:24.070Z,2.15
2022-08-22T10:47:58.436Z,3.03
2022-08-22T10:48:35.545Z,2.63
2022-08-22T10:49:29.170Z,2.38
2022-08-22T10:50:20.134Z,2.30
2022-08-22T10:51:01.630Z,2.10
2022-08-22T10:51:45.063Z,2.15
2022-08-22T10:52:27.341Z,2.10
2022-08-22T10:53:29.016Z,2.30
2022-08-22T10:54:51.603Z,2.45
2022-08-22T10:55:27.305Z,1.90